createdAt,value
2019-02-18T00:00:57.223Z,33.13
2019-02-18T00:02:05.124Z,27.62
2019-02-18T00:03:11.149Z,26.85
2019-02-18T00:04:17.044Z,27.62
2019-02-18T00:05:23.172Z,29.02
2019-02-18T00:06:29.005Z,29.75
2019-02-18T00:07:34.906Z,26.10
2019-02-18T00:08:41.002Z,26.75
2019-02-18T00:09:48.665Z,28.67
2019-02-18T00:10:55.764Z,30.32
2019-02-18T00:12:03.544Z,28.80
2019-02-18T00:13:31.512Z,29.30
2019-02-18T00:14:39.391Z,29.60
2019-02-18T00:16:06.679Z,26.45
2019-02-18T00:17:13.355Z,29.63
2019-02-18T00:18:19.514Z,25.60
2019-02-18T00:19:26.304Z,24.50
2019-02-18T00:20:33.177Z,29.87
2019-02-18T00:21:39.143Z,26.05
2019-02-18T00:22:45.545Z,28.67
2019-02-18T00:23:53.764Z,28.32
2019-02-18T00:25:00.306Z,39.15
2019-02-18T00:26:06.505Z,27.35
2019-02-18T00:27:12.544Z,34.40
2019-02-18T00:28:18.382Z,31.70
2019-02-18T00:29:24.765Z,37.38
2019-02-18T00:30:30.579Z,34.70
2019-02-18T00:31:36.544Z,33.48
2019-02-18T00:32:42.384Z,27.22
2019-02-18T00:33:48.209Z,32.10
2019-02-18T00:34:53.927Z,28.87
2019-02-18T00:36:00.244Z,33.35
2019-02-18T00:37:06.365Z,31.45
2019-02-18T00:38:13.525Z,28.77
2019-02-18T00:39:19.771Z,32.73
2019-02-18T00:40:25.526Z,32.42
2019-02-18T00:41:32.358Z,30.00
2019-02-18T00:42:39.908Z,29.32
2019-02-18T00:43:47.765Z,29.12
2019-02-18T00:44:54.715Z,31.52
2019-02-18T00:46:01.725Z,27.60
2019-02-18T00:47:08.528Z,31.33
2019-02-18T00:48:14.872Z,27.82
2019-02-18T00:49:22.509Z,31.73
2019-02-18T00:50:28.888Z,34.27
2019-02-18T00:51:36.484Z,37.40
2019-02-18T00:52:42.781Z,32.08
2019-02-18T00:53:50.205Z,35.30
2019-02-18T00:54:56.992Z,30.25
2019-02-18T00:56:03.753Z,36.50
2019-02-18T00:57:10.153Z,34.70
2019-02-18T00:58:17.285Z,35.95
2019-02-18T00:59:23.207Z,34.38
2019-02-18T01:00:29.162Z,36.13
2019-02-18T01:01:35.626Z,36.25
2019-02-18T01:02:41.582Z,34.95
2019-02-18T01:03:47.452Z,34.43
2019-02-18T01:04:53.552Z,31.87
2019-02-18T01:05:59.501Z,33.90
2019-02-18T01:07:05.245Z,33.02
2019-02-18T01:08:11.410Z,34.67
2019-02-18T01:09:17.565Z,39.50
2019-02-18T01:10:24.124Z,30.77
2019-02-18T01:11:31.252Z,35.65
2019-02-18T01:12:39.366Z,47.93
2019-02-18T01:13:46.151Z,45.83
2019-02-18T01:14:53.035Z,45.20
2019-02-18T01:16:00.392Z,46.90
2019-02-18T01:17:07.552Z,41.75
2019-02-18T01:18:14.312Z,46.20
2019-02-18T01:19:20.485Z,52.10
2019-02-18T01:20:27.512Z,50.28
2019-02-18T01:21:34.545Z,46.10
2019-02-18T01:22:40.486Z,50.20
2019-02-18T01:23:47.125Z,47.73
2019-02-18T01:24:54.566Z,48.75
2019-02-18T01:26:00.585Z,51.98
2019-02-18T01:27:07.812Z,48.00
2019-02-18T01:28:13.765Z,50.50
2019-02-18T01:29:19.612Z,51.55
2019-02-18T01:30:27.285Z,47.55
2019-02-18T01:31:34.673Z,43.85
2019-02-18T01:32:40.805Z,47.62
2019-02-18T01:33:46.604Z,47.53
2019-02-18T01:34:52.307Z,43.33
2019-02-18T01:35:58.745Z,46.13
2019-02-18T01:37:04.789Z,50.28
2019-02-18T01:38:10.835Z,44.55
2019-02-18T01:39:16.985Z,49.27
2019-02-18T01:40:23.206Z,52.53
2019-02-18T01:41:29.872Z,49.58
2019-02-18T01:42:37.414Z,56.75
2019-02-18T01:43:44.832Z,59.25
2019-02-18T01:44:51.226Z,59.27
2019-02-18T01:45:57.312Z,60.15
2019-02-18T01:47:03.586Z,55.80
2019-02-18T01:48:10.367Z,57.85
2019-02-18T01:49:16.078Z,63.70
2019-02-18T01:50:22.985Z,61.08
2019-02-18T01:51:30.552Z,61.33
2019-02-18T01:52:38.265Z,65.65
2019-02-18T01:53:44.645Z,71.22
2019-02-18T01:54:51.692Z,76.02
2019-02-18T01:55:57.825Z,72.15
2019-02-18T01:57:04.191Z,61.00
2019-02-18T01:58:12.115Z,57.45
2019-02-18T01:59:17.814Z,57.62
2019-02-18T02:00:23.994Z,58.38
2019-02-18T02:01:29.936Z,61.75
2019-02-18T02:02:35.735Z,56.80
2019-02-18T02:03:41.533Z,56.75
2019-02-18T02:04:47.346Z,54.33
2019-02-18T02:05:53.141Z,48.05
2019-02-18T02:06:59.185Z,52.90
2019-02-18T02:08:06.043Z,54.63
2019-02-18T02:09:13.516Z,49.53
2019-02-18T02:10:40.344Z,51.37
2019-02-18T02:11:47.486Z,55.73
2019-02-18T02:12:57.765Z,61.80
2019-02-18T02:14:03.999Z,62.55
2019-02-18T02:15:21.427Z,55.73
2019-02-18T02:16:28.108Z,54.38
2019-02-18T02:17:33.847Z,57.95
2019-02-18T02:18:40.066Z,63.13
2019-02-18T02:19:46.825Z,70.80
2019-02-18T02:20:52.713Z,71.05
2019-02-18T02:21:59.425Z,64.45
2019-02-18T02:23:06.227Z,80.60
2019-02-18T02:24:12.386Z,80.07
2019-02-18T02:25:18.825Z,85.85
2019-02-18T02:26:25.746Z,96.97
2019-02-18T02:27:33.246Z,99.67
2019-02-18T02:28:39.226Z,98.72
2019-02-18T02:29:45.073Z,119.95
2019-02-18T02:30:51.422Z,113.57
2019-02-18T02:31:57.307Z,123.58
2019-02-18T02:33:02.988Z,91.92
2019-02-18T02:34:08.693Z,96.85
2019-02-18T02:35:14.686Z,87.85
2019-02-18T02:36:21.067Z,87.42
2019-02-18T02:37:26.910Z,97.65
2019-02-18T02:38:32.967Z,101.60
2019-02-18T02:39:39.560Z,89.65
2019-02-18T02:40:46.210Z,81.15
2019-02-18T02:41:53.777Z,92.55
2019-02-18T02:42:59.826Z,91.02
2019-02-18T02:44:06.711Z,81.20
2019-02-18T02:45:13.310Z,76.62
2019-02-18T02:46:19.376Z,83.70
2019-02-18T02:47:26.186Z,78.20
2019-02-18T02:48:32.106Z,79.62
2019-02-18T02:49:38.947Z,90.32
2019-02-18T02:50:45.398Z,83.00
2019-02-18T02:51:51.187Z,81.37
2019-02-18T02:54:14.893Z,81.35
2019-02-18T02:55:21.077Z,89.72
2019-02-18T02:56:28.351Z,84.90
2019-02-18T02:57:35.186Z,84.37
2019-02-18T02:58:41.194Z,87.05
2019-02-18T02:59:46.906Z,82.27
2019-02-18T03:00:52.746Z,91.55
2019-02-18T03:01:58.473Z,108.32
2019-02-18T03:03:04.551Z,124.42
2019-02-18T03:04:10.587Z,107.05
2019-02-18T03:05:16.451Z,104.95
2019-02-18T03:06:22.326Z,140.22
2019-02-18T03:07:28.087Z,89.65
2019-02-18T03:08:33.966Z,121.35
2019-02-18T03:09:41.268Z,108.95
2019-02-18T03:10:47.386Z,105.60
2019-02-18T03:11:53.706Z,111.50
2019-02-18T03:13:01.626Z,93.20
2019-02-18T03:14:09.126Z,90.25
2019-02-18T03:15:16.615Z,76.72
2019-02-18T03:16:24.108Z,82.78
2019-02-18T03:17:30.427Z,76.90
2019-02-18T03:18:37.549Z,66.87
2019-02-18T03:19:44.747Z,76.47
2019-02-18T03:20:50.839Z,83.58
2019-02-18T03:21:56.868Z,94.52
2019-02-18T03:23:04.946Z,85.87
2019-02-18T03:24:11.313Z,83.50
2019-02-18T03:25:28.722Z,130.60
2019-02-18T03:26:35.508Z,152.95
2019-02-18T03:27:41.793Z,123.05
2019-02-18T03:29:18.312Z,126.20
2019-02-18T03:30:47.981Z,109.20
2019-02-18T03:31:54.208Z,83.62
2019-02-18T03:33:00.608Z,81.78
2019-02-18T03:34:14.048Z,88.25
2019-02-18T03:35:19.807Z,72.78
2019-02-18T03:36:26.076Z,79.15
2019-02-18T03:37:31.779Z,81.78
2019-02-18T03:38:37.528Z,81.40
2019-02-18T03:39:43.363Z,87.05
2019-02-18T03:40:49.433Z,79.22
2019-02-18T03:41:57.807Z,82.55
2019-02-18T03:43:03.931Z,118.08
2019-02-18T03:44:31.067Z,106.85
2019-02-18T03:45:37.761Z,129.42
2019-02-18T03:46:44.390Z,126.33
2019-02-18T03:47:50.878Z,133.55
2019-02-18T03:48:56.647Z,125.50
2019-02-18T03:50:03.088Z,139.88
2019-02-18T03:51:11.547Z,100.02
2019-02-18T03:52:17.747Z,110.63
2019-02-18T03:53:23.912Z,96.15
2019-02-18T03:54:30.349Z,89.52
2019-02-18T03:55:36.436Z,92.45
2019-02-18T03:56:43.949Z,102.50
2019-02-18T03:57:50.037Z,81.32
2019-02-18T03:58:55.839Z,92.30
2019-02-18T04:00:01.629Z,99.65
2019-02-18T04:01:07.608Z,88.60
2019-02-18T04:02:13.517Z,81.45
2019-02-18T04:03:19.514Z,84.25
2019-02-18T04:04:25.450Z,84.15
2019-02-18T04:05:31.153Z,78.60
2019-02-18T04:06:37.667Z,82.57
2019-02-18T04:07:43.660Z,95.87
2019-02-18T04:08:49.431Z,92.33
2019-02-18T04:09:56.652Z,97.17
2019-02-18T04:11:02.871Z,91.02
2019-02-18T04:12:09.527Z,86.72
2019-02-18T04:13:16.374Z,89.67
2019-02-18T04:14:22.327Z,93.58
2019-02-18T04:15:28.942Z,82.57
2019-02-18T04:16:34.711Z,89.45
2019-02-18T04:17:41.661Z,90.42
2019-02-18T04:18:48.413Z,98.15
2019-02-18T04:19:54.680Z,98.95
2019-02-18T04:21:00.844Z,101.12
2019-02-18T04:22:08.794Z,101.00
2019-02-18T04:23:15.125Z,126.90
2019-02-18T04:24:21.702Z,147.28
2019-02-18T04:25:28.009Z,100.82
2019-02-18T04:26:33.734Z,107.87
2019-02-18T04:27:40.491Z,102.62
2019-02-18T04:28:46.972Z,89.95
2019-02-18T04:29:52.564Z,90.28
2019-02-18T04:30:58.217Z,93.55
2019-02-18T04:32:03.982Z,106.97
2019-02-18T04:33:09.729Z,88.72
2019-02-18T04:34:15.381Z,112.88
2019-02-18T04:35:24.974Z,98.65
2019-02-18T04:36:30.713Z,95.77
2019-02-18T04:37:36.690Z,98.10
2019-02-18T04:38:53.609Z,90.60
2019-02-18T04:39:51.692Z,79.53
2019-02-18T04:40:57.971Z,82.90
2019-02-18T04:42:04.368Z,86.53
2019-02-18T04:43:10.284Z,77.78
2019-02-18T04:44:17.432Z,74.82
2019-02-18T04:45:24.002Z,72.75
2019-02-18T04:46:30.303Z,68.60
2019-02-18T04:47:36.934Z,72.15
2019-02-18T04:48:43.885Z,67.17
2019-02-18T04:49:50.652Z,76.70
2019-02-18T04:50:57.110Z,66.92
2019-02-18T04:52:03.371Z,60.50
2019-02-18T04:53:10.053Z,68.28
2019-02-18T04:54:16.332Z,61.00
2019-02-18T04:55:22.123Z,65.72
2019-02-18T04:56:29.483Z,62.45
2019-02-18T04:57:35.972Z,68.28
2019-02-18T04:58:42.132Z,65.72
2019-02-18T04:59:47.850Z,59.85
2019-02-18T05:00:53.603Z,60.85
2019-02-18T05:01:59.516Z,75.35
2019-02-18T05:03:05.222Z,93.27
2019-02-18T05:04:10.930Z,132.00
2019-02-18T05:05:16.684Z,114.82
2019-02-18T05:06:25.373Z,118.28
2019-02-18T05:07:30.212Z,152.38
2019-02-18T05:08:36.050Z,147.85
2019-02-18T05:09:42.694Z,144.82
2019-02-18T05:10:48.656Z,102.05
2019-02-18T05:11:55.134Z,92.17
2019-02-18T05:13:01.637Z,74.47
2019-02-18T05:14:07.843Z,65.28
2019-02-18T05:15:14.620Z,66.82
2019-02-18T05:16:21.874Z,76.55
2019-02-18T05:17:27.802Z,64.53
2019-02-18T05:18:34.412Z,77.20
2019-02-18T05:19:40.748Z,71.70
2019-02-18T05:20:46.422Z,80.05
2019-02-18T05:21:53.314Z,76.07
2019-02-18T05:22:59.803Z,65.00
2019-02-18T05:24:05.685Z,71.10
2019-02-18T05:25:14.052Z,74.40
2019-02-18T05:26:21.023Z,74.30
2019-02-18T05:27:33.211Z,80.95
2019-02-18T05:28:35.613Z,67.35
2019-02-18T05:29:41.495Z,74.92
2019-02-18T05:30:47.262Z,74.27
2019-02-18T05:31:52.897Z,73.83
2019-02-18T05:32:58.556Z,61.77
2019-02-18T05:34:04.257Z,57.70
2019-02-18T05:35:10.081Z,61.20
2019-02-18T05:36:15.854Z,61.37
2019-02-18T05:37:21.595Z,65.85
2019-02-18T05:38:27.449Z,77.25
2019-02-18T05:39:33.204Z,68.05
2019-02-18T05:40:38.912Z,89.83
2019-02-18T05:41:46.389Z,78.70
2019-02-18T05:42:54.013Z,85.38
2019-02-18T05:44:00.053Z,74.80
2019-02-18T05:45:09.494Z,71.47
2019-02-18T05:46:16.577Z,65.92
2019-02-18T05:47:22.283Z,65.05
2019-02-18T05:48:28.712Z,74.62
2019-02-18T05:49:35.079Z,71.22
2019-02-18T05:50:41.212Z,77.27
2019-02-18T05:51:47.930Z,71.02
2019-02-18T05:52:54.792Z,71.72
2019-02-18T05:54:00.933Z,81.08
2019-02-18T05:55:08.768Z,82.55
2019-02-18T05:56:14.945Z,88.03
2019-02-18T05:57:22.937Z,75.05
2019-02-18T05:58:30.363Z,66.65
2019-02-18T05:59:36.273Z,71.28
2019-02-18T06:00:42.226Z,68.15
2019-02-18T06:01:47.949Z,88.05
2019-02-18T06:02:53.693Z,85.15
2019-02-18T06:04:00.683Z,74.77
2019-02-18T06:05:07.130Z,84.67
2019-02-18T06:06:12.793Z,82.17
2019-02-18T06:07:18.515Z,148.82
2019-02-18T06:08:24.246Z,99.67
2019-02-18T06:09:30.727Z,97.33
2019-02-18T06:10:38.470Z,107.60
2019-02-18T06:11:45.173Z,102.58
2019-02-18T06:12:51.413Z,137.80
2019-02-18T06:13:57.145Z,155.27
2019-02-18T06:15:04.013Z,118.57
2019-02-18T06:16:10.853Z,113.28
2019-02-18T06:17:17.454Z,105.60
2019-02-18T06:18:23.733Z,103.70
2019-02-18T06:19:30.373Z,111.05
2019-02-18T06:20:37.109Z,91.87
2019-02-18T06:21:43.705Z,98.97
2019-02-18T06:22:50.773Z,93.27
2019-02-18T06:23:56.903Z,86.85
2019-02-18T06:25:03.256Z,95.72
2019-02-18T06:26:10.161Z,100.27
2019-02-18T06:27:18.072Z,100.00
2019-02-18T06:28:24.933Z,98.97
2019-02-18T06:29:31.337Z,100.65
2019-02-18T06:30:37.099Z,111.52
2019-02-18T06:31:42.844Z,108.42
2019-02-18T06:32:49.603Z,113.95
2019-02-18T06:33:55.342Z,101.42
2019-02-18T06:35:01.166Z,103.15
2019-02-18T06:36:07.043Z,108.60
2019-02-18T06:37:12.892Z,105.95
2019-02-18T06:38:18.711Z,107.80
2019-02-18T06:39:24.458Z,108.52
2019-02-18T06:40:30.265Z,106.52
2019-02-18T06:41:36.594Z,104.87
2019-02-18T06:42:44.123Z,110.72
2019-02-18T06:43:50.367Z,132.35
2019-02-18T06:45:14.236Z,119.93
2019-02-18T06:46:27.173Z,127.65
2019-02-18T06:47:33.094Z,134.00
2019-02-18T06:48:46.834Z,142.85
2019-02-18T06:49:56.054Z,112.42
2019-02-18T06:51:03.573Z,165.95
2019-02-18T06:52:11.825Z,117.82
2019-02-18T06:53:17.744Z,103.85
2019-02-18T06:54:27.173Z,144.30
2019-02-18T06:55:33.847Z,128.78
2019-02-18T06:56:43.260Z,135.65
2019-02-18T06:58:18.262Z,126.42
2019-02-18T06:59:29.891Z,109.35
2019-02-18T07:01:02.288Z,108.35
2019-02-18T07:02:21.631Z,119.13
2019-02-18T07:03:29.745Z,109.55
2019-02-18T07:04:37.768Z,97.17
2019-02-18T07:05:47.864Z,95.45
2019-02-18T07:06:59.443Z,106.12
2019-02-18T07:08:09.786Z,91.92
2019-02-18T07:09:31.997Z,113.68
2019-02-18T07:10:43.064Z,88.12
2019-02-18T07:11:54.363Z,102.82
2019-02-18T07:13:00.716Z,111.50
2019-02-18T07:14:07.406Z,100.33
2019-02-18T07:15:14.276Z,98.30
2019-02-18T07:16:20.898Z,109.35
2019-02-18T07:17:28.847Z,88.27
2019-02-18T07:18:35.441Z,84.45
2019-02-18T07:19:41.894Z,86.97
2019-02-18T07:20:48.784Z,80.85
2019-02-18T07:21:56.035Z,90.85
2019-02-18T07:23:01.999Z,83.20
2019-02-18T07:24:09.293Z,70.97
2019-02-18T07:25:15.027Z,79.77
2019-02-18T07:26:21.974Z,82.42
2019-02-18T07:27:28.765Z,83.95
2019-02-18T07:28:35.227Z,79.67
2019-02-18T07:29:41.975Z,84.60
2019-02-18T07:30:47.919Z,72.40
2019-02-18T07:31:53.671Z,73.35
2019-02-18T07:32:59.305Z,67.72
2019-02-18T07:34:04.996Z,72.10
2019-02-18T07:35:10.724Z,67.95
2019-02-18T07:36:16.405Z,67.05
2019-02-18T07:37:22.069Z,71.35
2019-02-18T07:38:27.750Z,66.12
2019-02-18T07:39:33.428Z,63.95
2019-02-18T07:40:39.715Z,60.28
2019-02-18T07:41:46.534Z,59.48
2019-02-18T07:42:53.536Z,60.85
2019-02-18T07:44:00.461Z,64.40
2019-02-18T07:45:10.227Z,55.10
2019-02-18T07:46:17.626Z,63.90
2019-02-18T07:47:24.246Z,60.08
2019-02-18T07:48:30.135Z,56.98
2019-02-18T07:49:36.914Z,61.48
2019-02-18T07:50:43.254Z,65.32
2019-02-18T07:51:50.643Z,83.97
2019-02-18T07:52:57.693Z,77.67
2019-02-18T07:54:03.515Z,87.97
2019-02-18T07:55:10.112Z,89.72
2019-02-18T07:56:16.454Z,79.95
2019-02-18T07:57:22.296Z,76.75
2019-02-18T07:58:28.880Z,92.40
2019-02-18T07:59:36.214Z,83.52
2019-02-18T08:00:41.964Z,86.97
2019-02-18T08:01:48.788Z,85.83
2019-02-18T08:02:54.570Z,89.30
2019-02-18T08:04:00.326Z,72.45
2019-02-18T08:05:07.568Z,69.85
2019-02-18T08:06:13.144Z,71.97
2019-02-18T08:07:18.888Z,71.05
2019-02-18T08:08:24.558Z,64.90
2019-02-18T08:09:30.338Z,63.33
2019-02-18T08:10:36.104Z,65.10
2019-02-18T08:11:43.039Z,61.83
2019-02-18T08:12:49.335Z,58.35
2019-02-18T08:13:55.557Z,55.43
2019-02-18T08:15:01.136Z,56.58
2019-02-18T08:16:07.374Z,57.62
2019-02-18T08:17:14.055Z,54.30
2019-02-18T08:18:19.836Z,52.62
2019-02-18T08:19:26.224Z,53.20
2019-02-18T08:20:32.487Z,51.88
2019-02-18T08:21:38.425Z,60.50
2019-02-18T08:22:44.547Z,50.92
2019-02-18T08:23:59.719Z,57.13
2019-02-18T08:24:59.996Z,57.10
2019-02-18T08:26:06.893Z,58.40
2019-02-18T08:27:13.344Z,61.05
2019-02-18T08:28:20.434Z,56.80
2019-02-18T08:29:26.625Z,57.78
2019-02-18T08:30:32.426Z,65.75
2019-02-18T08:31:38.796Z,65.62
2019-02-18T08:32:44.515Z,62.05
2019-02-18T08:33:50.176Z,60.55
2019-02-18T08:34:55.977Z,59.88
2019-02-18T08:36:01.726Z,69.30
2019-02-18T08:37:07.496Z,68.33
2019-02-18T08:38:13.227Z,82.60
2019-02-18T08:39:18.857Z,85.10
2019-02-18T08:40:24.617Z,65.72
2019-02-18T08:41:30.903Z,70.35
2019-02-18T08:42:38.006Z,67.82
2019-02-18T08:43:44.066Z,72.00
2019-02-18T08:44:50.566Z,65.62
2019-02-18T08:45:58.037Z,73.25
2019-02-18T08:47:04.109Z,71.33
2019-02-18T08:48:11.695Z,70.60
2019-02-18T08:49:17.707Z,74.42
2019-02-18T08:50:23.395Z,69.82
2019-02-18T08:51:29.895Z,99.92
2019-02-18T08:52:35.805Z,109.55
2019-02-18T08:53:42.026Z,90.20
2019-02-18T08:54:56.334Z,84.58
2019-02-18T08:55:56.267Z,77.08
2019-02-18T08:57:02.976Z,61.88
2019-02-18T08:58:09.465Z,74.53
2019-02-18T08:59:15.426Z,67.85
2019-02-18T09:00:21.155Z,77.40
2019-02-18T09:01:26.821Z,72.92
2019-02-18T09:02:34.189Z,76.75
2019-02-18T09:03:39.949Z,74.85
2019-02-18T09:04:45.746Z,81.60
2019-02-18T09:05:51.414Z,83.97
2019-02-18T09:06:57.697Z,86.00
2019-02-18T09:08:03.386Z,90.77
2019-02-18T09:09:09.118Z,89.40
2019-02-18T09:10:15.490Z,82.33
2019-02-18T09:11:21.243Z,85.95
2019-02-18T09:12:27.046Z,88.42
2019-02-18T09:13:34.819Z,85.20
2019-02-18T09:14:40.506Z,83.85
2019-02-18T09:15:47.218Z,92.37
2019-02-18T09:16:53.027Z,86.75
2019-02-18T09:17:59.454Z,92.08
2019-02-18T09:19:05.325Z,99.07
2019-02-18T09:20:12.509Z,96.42
2019-02-18T09:21:18.538Z,99.30
2019-02-18T09:22:39.725Z,101.07
2019-02-18T09:23:47.087Z,101.25
2019-02-18T09:24:54.885Z,98.82
2019-02-18T09:26:00.952Z,95.05
2019-02-18T09:27:06.990Z,96.00
2019-02-18T09:28:12.816Z,89.22
2019-02-18T09:29:19.339Z,89.83
2019-02-18T09:30:26.956Z,88.50
2019-02-18T09:31:33.527Z,95.50
2019-02-18T09:32:39.175Z,99.58
2019-02-18T09:33:45.036Z,102.47
2019-02-18T09:34:53.170Z,70.47
2019-02-18T09:35:58.167Z,88.85
2019-02-18T09:37:03.907Z,82.30
2019-02-18T09:38:09.729Z,73.22
2019-02-18T09:39:30.775Z,81.20
2019-02-18T09:40:29.076Z,67.55
2019-02-18T09:41:35.103Z,71.72
2019-02-18T09:42:41.776Z,72.80
2019-02-18T09:43:48.812Z,65.67
2019-02-18T09:44:54.920Z,63.90
2019-02-18T09:46:01.496Z,65.05
2019-02-18T09:47:10.567Z,67.65
2019-02-18T09:48:16.265Z,61.18
2019-02-18T09:49:22.236Z,64.60
2019-02-18T09:50:29.389Z,65.85
2019-02-18T09:51:35.456Z,67.05
2019-02-18T09:52:41.277Z,63.28
2019-02-18T09:53:47.098Z,62.80
2019-02-18T09:54:53.621Z,65.83
2019-02-18T09:55:59.796Z,64.82
2019-02-18T09:57:06.146Z,70.62
2019-02-18T09:58:12.248Z,65.20
2019-02-18T09:59:19.452Z,63.83
2019-02-18T10:00:25.217Z,65.65
2019-02-18T10:01:30.858Z,71.45
2019-02-18T10:02:36.741Z,72.72
2019-02-18T10:03:42.436Z,66.85
2019-02-18T10:04:48.014Z,76.45
2019-02-18T10:05:54.856Z,72.60
2019-02-18T10:07:00.610Z,64.45
2019-02-18T10:08:06.377Z,67.53
2019-02-18T10:09:12.222Z,70.95
2019-02-18T10:10:18.057Z,76.45
2019-02-18T10:11:24.345Z,76.00
2019-02-18T10:12:30.426Z,73.05
2019-02-18T10:13:36.508Z,70.33
2019-02-18T10:14:43.445Z,72.30
2019-02-18T10:15:49.486Z,81.28
2019-02-18T10:16:55.653Z,70.10
2019-02-18T10:18:01.956Z,67.93
2019-02-18T10:19:08.577Z,66.75
2019-02-18T10:20:15.657Z,67.90
2019-02-18T10:21:21.356Z,70.17
2019-02-18T10:22:28.017Z,72.47
2019-02-18T10:23:34.495Z,64.00
2019-02-18T10:24:50.770Z,67.70
2019-02-18T10:25:48.117Z,66.10
2019-02-18T10:26:54.808Z,72.23
2019-02-18T10:28:01.542Z,67.03
2019-02-18T10:29:08.259Z,65.47
2019-02-18T10:30:15.982Z,69.77
2019-02-18T10:31:21.621Z,70.00
2019-02-18T10:32:27.297Z,72.27
2019-02-18T10:33:33.056Z,70.80
2019-02-18T10:34:38.788Z,64.57
2019-02-18T10:35:44.600Z,72.33
2019-02-18T10:36:50.259Z,65.63
2019-02-18T10:37:55.971Z,74.60
2019-02-18T10:39:01.641Z,71.93
2019-02-18T10:40:10.857Z,64.67
2019-02-18T10:41:19.301Z,72.43
2019-02-18T10:42:26.195Z,69.97
2019-02-18T10:43:32.824Z,80.47
2019-02-18T10:44:40.198Z,79.23
2019-02-18T10:45:46.457Z,72.43
2019-02-18T10:46:52.157Z,72.93
2019-02-18T10:47:59.027Z,73.57
2019-02-18T10:49:18.933Z,72.40
2019-02-18T10:50:14.713Z,69.40
2019-02-18T10:51:21.258Z,76.77
2019-02-18T10:52:27.826Z,72.70
2019-02-18T10:53:34.429Z,71.87
2019-02-18T10:54:40.661Z,72.90
2019-02-18T10:55:47.217Z,76.63
2019-02-18T10:56:53.597Z,77.30
2019-02-18T10:58:00.537Z,74.33
2019-02-18T10:59:06.314Z,80.73
2019-02-18T11:00:17.554Z,78.33
2019-02-18T11:01:23.720Z,46.13
2019-02-18T11:02:29.406Z,70.67
2019-02-18T11:03:35.159Z,68.80
2019-02-18T11:04:41.866Z,75.70
2019-02-18T11:05:47.552Z,78.40
2019-02-18T11:06:53.267Z,69.70
2019-02-18T11:07:58.952Z,74.23
2019-02-18T11:09:05.936Z,70.67
2019-02-18T11:10:18.262Z,74.50
2019-02-18T11:11:23.968Z,72.30
2019-02-18T11:12:29.707Z,68.50
2019-02-18T11:13:36.016Z,73.73
2019-02-18T11:14:43.197Z,72.33
2019-02-18T11:15:49.598Z,67.50
2019-02-18T11:16:55.891Z,71.80
2019-02-18T11:18:01.965Z,71.70
2019-02-18T11:19:07.716Z,75.23
2019-02-18T11:20:14.976Z,80.50
2019-02-18T11:21:20.731Z,76.33
2019-02-18T11:22:27.118Z,81.67
2019-02-18T11:23:32.939Z,82.23
2019-02-18T11:24:39.568Z,74.93
2019-02-18T11:25:45.932Z,80.07
2019-02-18T11:26:52.460Z,79.83
2019-02-18T11:27:58.457Z,73.33
2019-02-18T11:29:04.716Z,74.03
2019-02-18T11:30:17.939Z,62.20
2019-02-18T11:31:23.883Z,67.57
2019-02-18T11:32:29.618Z,67.03
2019-02-18T11:33:35.463Z,73.70
2019-02-18T11:34:42.337Z,73.33
2019-02-18T11:35:48.277Z,74.47
2019-02-18T11:36:54.327Z,72.03
2019-02-18T11:38:00.073Z,69.20
2019-02-18T11:39:11.807Z,72.90
2019-02-18T11:40:20.788Z,65.90
2019-02-18T11:41:28.246Z,74.27
2019-02-18T11:42:37.477Z,70.23
2019-02-18T11:43:44.620Z,67.20
2019-02-18T11:44:51.297Z,66.67
2019-02-18T11:45:57.467Z,73.03
2019-02-18T11:47:04.711Z,70.47
2019-02-18T11:48:11.409Z,66.43
2019-02-18T11:49:17.348Z,68.43
2019-02-18T11:50:23.586Z,72.07
2019-02-18T11:51:29.607Z,66.13
2019-02-18T11:52:35.868Z,66.67
2019-02-18T11:53:41.928Z,61.90
2019-02-18T11:54:47.897Z,65.37
2019-02-18T11:55:54.142Z,67.93
2019-02-18T11:57:00.750Z,62.93
2019-02-18T11:58:06.653Z,65.97
2019-02-18T11:59:12.708Z,59.70
2019-02-18T12:00:19.441Z,65.30
2019-02-18T12:01:25.620Z,66.57
2019-02-18T12:02:31.968Z,67.37
2019-02-18T12:03:37.703Z,66.07
2019-02-18T12:04:43.449Z,65.90
2019-02-18T12:05:51.726Z,68.50
2019-02-18T12:06:57.368Z,68.07
2019-02-18T12:08:03.118Z,64.30
2019-02-18T12:09:08.889Z,65.87
2019-02-18T12:10:15.008Z,65.90
2019-02-18T12:11:20.867Z,73.70
2019-02-18T12:12:26.903Z,69.00
2019-02-18T12:13:33.080Z,63.90
2019-02-18T12:14:39.709Z,62.03
2019-02-18T12:15:46.676Z,61.10
2019-02-18T12:16:53.861Z,61.93
2019-02-18T12:17:59.690Z,64.53
2019-02-18T12:19:05.467Z,66.63
2019-02-18T12:20:15.427Z,63.17
2019-02-18T12:21:21.148Z,68.17
2019-02-18T12:22:26.879Z,73.37
2019-02-18T12:23:32.610Z,61.73
2019-02-18T12:24:39.219Z,66.33
2019-02-18T12:25:46.357Z,67.40
2019-02-18T12:26:52.269Z,66.57
2019-02-18T12:27:58.857Z,64.20
2019-02-18T12:29:05.789Z,68.33
2019-02-18T12:30:15.421Z,72.30
2019-02-18T12:31:21.875Z,69.60
2019-02-18T12:32:27.661Z,64.20
2019-02-18T12:33:33.359Z,52.80
2019-02-18T12:34:39.351Z,61.37
2019-02-18T12:35:45.378Z,64.00
2019-02-18T12:37:57.480Z,60.37
2019-02-18T12:39:03.219Z,68.53
2019-02-18T12:40:15.285Z,62.83
2019-02-18T12:41:20.927Z,63.77
2019-02-18T12:42:27.289Z,59.30
2019-02-18T12:43:34.559Z,62.03
2019-02-18T12:44:40.875Z,65.83
2019-02-18T12:45:47.527Z,67.03
2019-02-18T12:46:53.707Z,62.80
2019-02-18T12:47:59.930Z,67.33
2019-02-18T12:49:06.778Z,60.00
2019-02-18T12:50:13.247Z,64.33
2019-02-18T12:51:19.407Z,64.63
2019-02-18T12:52:25.501Z,67.30
2019-02-18T12:53:32.070Z,61.53
2019-02-18T12:54:38.219Z,63.90
2019-02-18T12:55:44.437Z,55.43
2019-02-18T12:56:51.296Z,57.90
2019-02-18T12:57:59.309Z,60.17
2019-02-18T12:59:05.392Z,62.93
2019-02-18T13:00:15.026Z,60.67
2019-02-18T13:01:21.897Z,60.00
2019-02-18T13:02:27.944Z,64.00
2019-02-18T13:03:33.588Z,62.33
2019-02-18T13:04:39.321Z,69.33
2019-02-18T13:05:45.050Z,63.93
2019-02-18T13:06:50.830Z,60.40
2019-02-18T13:07:56.578Z,63.43
2019-02-18T13:09:02.699Z,64.63
2019-02-18T13:10:10.371Z,61.10
2019-02-18T13:11:16.241Z,63.77
2019-02-18T13:12:22.070Z,63.60
2019-02-18T13:13:31.366Z,64.67
2019-02-18T13:14:37.039Z,63.57
2019-02-18T13:15:43.281Z,58.93
2019-02-18T13:16:49.969Z,66.40
2019-02-18T13:17:55.709Z,66.63
2019-02-18T13:19:02.208Z,61.53
2019-02-18T13:20:09.713Z,62.90
2019-02-18T13:21:15.899Z,60.73
2019-02-18T13:22:22.219Z,58.33
2019-02-18T13:23:28.978Z,60.50
2019-02-18T13:24:34.850Z,57.97
2019-02-18T13:25:47.407Z,52.73
2019-02-18T13:26:49.080Z,68.47
2019-02-18T13:27:55.447Z,60.27
2019-02-18T13:29:02.461Z,64.47
2019-02-18T13:30:18.228Z,65.87
2019-02-18T13:31:24.931Z,67.63
2019-02-18T13:32:30.699Z,67.43
2019-02-18T13:33:37.369Z,61.80
2019-02-18T13:34:43.690Z,63.57
2019-02-18T13:35:49.560Z,61.73
2019-02-18T13:36:58.147Z,64.33
2019-02-18T13:38:04.136Z,64.93
2019-02-18T13:39:11.012Z,61.73
2019-02-18T13:40:18.839Z,58.13
2019-02-18T13:41:25.129Z,57.07
2019-02-18T13:42:33.359Z,65.90
2019-02-18T13:43:39.890Z,63.67
2019-02-18T13:44:46.873Z,59.47
2019-02-18T13:45:53.608Z,61.33
2019-02-18T13:47:00.198Z,61.27
2019-02-18T13:48:06.088Z,65.03
2019-02-18T13:49:11.949Z,63.40
2019-02-18T13:50:19.139Z,62.43
2019-02-18T13:51:26.053Z,64.40
2019-02-18T13:52:31.853Z,62.53
2019-02-18T13:53:38.564Z,60.50
2019-02-18T13:54:45.496Z,65.57
2019-02-18T13:55:52.561Z,65.53
2019-02-18T13:56:59.498Z,70.20
2019-02-18T13:58:05.918Z,68.93
2019-02-18T13:59:11.927Z,65.00
2019-02-18T14:00:21.842Z,61.47
2019-02-18T14:01:28.349Z,62.73
2019-02-18T14:02:34.469Z,57.63
2019-02-18T14:03:40.638Z,61.40
2019-02-18T14:04:47.807Z,66.53
2019-02-18T14:05:54.566Z,57.57
2019-02-18T14:07:02.839Z,60.07
2019-02-18T14:08:09.229Z,60.63
2019-02-18T14:09:15.276Z,67.83
2019-02-18T14:10:22.237Z,65.30
2019-02-18T14:11:28.281Z,64.63
2019-02-18T14:12:34.749Z,62.40
2019-02-18T14:13:41.987Z,64.90
2019-02-18T14:14:47.867Z,68.07
2019-02-18T14:15:55.059Z,63.57
2019-02-18T14:17:02.749Z,63.37
2019-02-18T14:18:09.099Z,63.83
2019-02-18T14:19:15.913Z,66.37
2019-02-18T14:20:22.450Z,69.97
2019-02-18T14:21:29.296Z,65.53